Archival Weather

Prince Abdulmajeed Bin Abdula

Prince Abdulmajeed Bin Abdula, Saudi Arabia (OEAO)

Report from: Monday, May 23, 2022 9:00 AM UTC
Current time: Tuesday, August 16, 2022 7:52 AM UTC

Current weather
Weather history
Weather forecast

Temperature30.0°C (86.0°F)
Heat index28.1°C (82.6°F)
Dew point-1.0°C (30.2°F)
Winds 8 kts (4.1 m/s, 9.2 mph) North (360°)
Clouds Sky clear
Altimeter29.88 in.Hg (1012 mB)
Relative humidity13 %
Density altitude1,854 ft. (565 m)
Remarks Ceiling and visibility OK
No significant changes expected in the next two hours
Flight conditions Visual Meteorological Conditions
Raw dataOEAO 230900Z 36008KT CAVOK 30/M01 Q1012 NOSIG
An error has occurred. This application may no longer respond until reloaded. Reload 🗙